Time;durP1;ratioP1;P1;durP2;ratioP2;P2;SDS_P1;SDS_P2;PMS_P1;PMS_P2;Temp;Humidity;BMP_temperature;BMP_pressure;BME280_temperature;BME280_humidity;BME280_pressure;Samples;Min_cycle;Max_cycle;Signal;HPM_P1;HPM_P2
2023/08/16 00:01:30;;;;;;;7.95;3.72;;;13.30;99.90;;;;;;5051279;28;20045;-66
2023/08/16 00:03:56;;;;;;;4.47;3.00;;;13.30;99.90;;;;;;5050341;28;20041;-66
2023/08/16 00:06:22;;;;;;;9.38;3.78;;;13.30;99.90;;;;;;5051549;28;20082;-66
2023/08/16 00:08:48;;;;;;;6.53;4.00;;;13.30;99.90;;;;;;5051508;28;20048;-66
2023/08/16 00:11:14;;;;;;;6.00;3.95;;;13.60;99.90;;;;;;5033023;28;20052;-66
2023/08/16 00:13:40;;;;;;;6.43;4.20;;;13.20;99.90;;;;;;5051339;28;20033;-66
2023/08/16 00:16:05;;;;;;;10.02;3.50;;;13.10;99.90;;;;;;5051168;28;20566;-66
2023/08/16 00:18:31;;;;;;;6.38;3.80;;;13.20;99.90;;;;;;5050815;28;20488;-66
2023/08/16 00:20:59;;;;;;;11.15;4.70;;;13.40;99.90;;;;;;5051232;28;20392;-66
2023/08/16 00:23:24;;;;;;;6.75;3.38;;;13.10;99.90;;;;;;5051175;28;20135;-66
2023/08/16 00:25:50;;;;;;;5.25;3.50;;;13.00;99.90;;;;;;5049803;28;20482;-66
2023/08/16 00:28:16;;;;;;;5.25;2.20;;;13.00;99.90;;;;;;5048677;28;20053;-66
2023/08/16 00:30:41;;;;;;;4.45;2.60;;;13.20;99.90;;;;;;5050834;28;20048;-66
2023/08/16 00:33:07;;;;;;;3.45;1.90;;;13.10;99.90;;;;;;5050780;28;20131;-66
2023/08/16 00:35:32;;;;;;;5.97;2.58;;;12.90;99.90;;;;;;5051267;28;20048;-66
2023/08/16 00:37:58;;;;;;;2.78;2.22;;;13.00;99.90;;;;;;5049445;28;20052;-66
2023/08/16 00:40:24;;;;;;;1.73;1.40;;;13.00;99.90;;;;;;5042908;28;20041;-66
2023/08/16 00:42:50;;;;;;;3.88;2.25;;;12.90;99.90;;;;;;5051035;28;20040;-66
2023/08/16 00:45:16;;;;;;;2.72;1.70;;;12.90;99.90;;;;;;5050478;28;20399;-66
2023/08/16 00:47:42;;;;;;;3.22;2.20;;;12.90;99.90;;;;;;5050569;28;20072;-66
2023/08/16 00:50:08;;;;;;;4.60;2.70;;;12.90;99.90;;;;;;5050634;28;20116;-67
2023/08/16 00:52:34;;;;;;;6.88;2.72;;;12.80;99.90;;;;;;5050414;28;20060;-66
2023/08/16 00:55:02;;;;;;;4.93;3.20;;;12.80;99.90;;;;;;5050546;28;20094;-66
2023/08/16 00:57:28;;;;;;;3.42;1.90;;;12.80;99.90;;;;;;5050238;28;20090;-66
2023/08/16 00:59:54;;;;;;;5.75;2.22;;;12.70;99.90;;;;;;5050188;28;20088;-66
2023/08/16 01:02:20;;;;;;;5.07;2.95;;;12.90;99.90;;;;;;5050261;28;20076;-66
2023/08/16 01:04:47;;;;;;;3.42;2.40;;;12.70;99.90;;;;;;5049980;28;20052;-66
2023/08/16 01:07:14;;;;;;;2.33;1.90;;;12.90;99.90;;;;;;5050290;28;20514;-65
2023/08/16 01:09:40;;;;;;;2.65;2.03;;;12.90;99.90;;;;;;5050164;28;20158;-65
2023/08/16 01:12:36;;;;;;;6.00;2.00;;;12.60;99.90;;;;;;5041618;28;20049;-66
2023/08/16 01:15:05;;;;;;;2.63;1.77;;;12.60;99.90;;;;;;5042189;28;20064;-66
2023/08/16 01:17:31;;;;;;;3.90;2.20;;;12.80;99.90;;;;;;5050313;28;20049;-66
2023/08/16 01:19:59;;;;;;;6.72;4.28;;;12.50;99.90;;;;;;5049609;28;20049;-66
2023/08/16 01:22:53;;;;;;;7.88;4.05;;;12.90;99.90;;;;;;5049271;28;20033;-67
2023/08/16 01:25:43;;;;;;;5.65;3.50;;;12.50;99.90;;;;;;5040509;28;20045;-66
2023/08/16 01:28:10;;;;;;;5.43;2.88;;;12.40;99.90;;;;;;5050055;28;20515;-66
2023/08/16 01:30:37;;;;;;;3.60;2.65;;;12.40;99.90;;;;;;5050383;28;20032;-66
2023/08/16 01:33:10;;;;;;;3.20;2.60;;;12.40;99.90;;;;;;5041186;28;20427;-66
2023/08/16 01:35:36;;;;;;;4.35;2.38;;;12.40;99.90;;;;;;5048232;28;20515;-66
2023/08/16 01:38:03;;;;;;;2.92;2.30;;;12.40;99.90;;;;;;5049160;28;20539;-66
2023/08/16 01:40:43;;;;;;;3.72;2.17;;;12.30;99.90;;;;;;5041024;28;20049;-66
2023/08/16 01:43:12;;;;;;;2.80;1.70;;;12.30;99.90;;;;;;5049796;28;20496;-68
2023/08/16 01:45:38;;;;;;;2.75;1.80;;;12.20;99.90;;;;;;5049833;28;20094;-66
2023/08/16 01:48:05;;;;;;;5.28;2.75;;;12.60;99.90;;;;;;5050071;28;20047;-66
2023/08/16 01:50:30;;;;;;;5.13;3.08;;;12.20;99.90;;;;;;5040524;28;20049;-66
2023/08/16 01:52:56;;;;;;;4.63;2.13;;;12.30;99.90;;;;;;5049836;28;20044;-66
2023/08/16 01:55:22;;;;;;;5.00;2.30;;;12.20;99.90;;;;;;5049270;28;20089;-66
2023/08/16 01:57:48;;;;;;;4.43;2.13;;;12.20;99.90;;;;;;5047858;28;20048;-65
2023/08/16 02:00:15;;;;;;;4.88;2.53;;;12.30;99.90;;;;;;5049019;28;20115;-65
2023/08/16 02:02:41;;;;;;;4.35;2.47;;;12.10;99.90;;;;;;5041593;28;20041;-66
2023/08/16 02:05:07;;;;;;;6.18;3.15;;;12.10;99.90;;;;;;5049340;28;20048;-66
2023/08/16 02:07:32;;;;;;;4.32;2.25;;;12.00;99.90;;;;;;5047489;28;20044;-66
2023/08/16 02:09:58;;;;;;;3.00;2.00;;;12.20;99.90;;;;;;5034799;28;20048;-66
2023/08/16 02:12:24;;;;;;;5.03;1.90;;;12.00;99.90;;;;;;5048779;28;20040;-66
2023/08/16 02:14:49;;;;;;;2.83;1.83;;;12.00;99.90;;;;;;5049031;28;20139;-64
2023/08/16 02:17:15;;;;;;;3.10;1.50;;;12.10;99.90;;;;;;5049149;28;20051;-66
2023/08/16 02:19:41;;;;;;;1.95;1.35;;;12.00;99.90;;;;;;5041276;28;20446;-67
2023/08/16 02:22:07;;;;;;;5.18;2.50;;;11.90;99.90;;;;;;5039750;28;20036;-66
2023/08/16 02:24:32;;;;;;;7.57;2.95;;;11.90;99.90;;;;;;5039933;28;20136;-66
2023/08/16 02:26:58;;;;;;;3.55;2.47;;;12.10;99.90;;;;;;5049321;28;20122;-66
2023/08/16 02:29:24;;;;;;;4.50;3.50;;;11.90;99.90;;;;;;5049347;28;20490;-66
2023/08/16 02:31:49;;;;;;;4.82;3.75;;;11.90;99.90;;;;;;5049066;28;20092;-66
2023/08/16 02:34:15;;;;;;;5.03;3.30;;;11.90;99.90;;;;;;5051973;28;20049;-66
2023/08/16 02:36:40;;;;;;;6.50;3.90;;;11.90;99.90;;;;;;5052865;28;21493;-66
2023/08/16 02:39:08;;;;;;;4.88;3.58;;;12.00;99.90;;;;;;5049010;28;20103;-66
2023/08/16 02:41:34;;;;;;;7.45;4.43;;;11.90;99.90;;;;;;5048971;28;20111;-67
2023/08/16 02:43:59;;;;;;;7.20;4.63;;;11.80;99.90;;;;;;5049590;28;20049;-66
2023/08/16 02:46:25;;;;;;;7.43;5.15;;;11.80;99.90;;;;;;5038102;28;20389;-66
2023/08/16 02:48:51;;;;;;;7.70;4.65;;;11.70;99.90;;;;;;5053025;28;20048;-66
2023/08/16 02:51:16;;;;;;;7.30;3.60;;;11.70;99.90;;;;;;5052518;28;20052;-66
2023/08/16 02:53:42;;;;;;;5.80;3.55;;;11.80;99.90;;;;;;5049481;28;20086;-66
2023/08/16 02:56:08;;;;;;;6.75;3.67;;;11.80;99.90;;;;;;5048384;28;20396;-66
2023/08/16 02:58:33;;;;;;;5.60;3.90;;;12.00;99.90;;;;;;5050618;28;20052;-66
2023/08/16 03:00:59;;;;;;;5.00;3.25;;;11.80;99.90;;;;;;5047502;28;20041;-66
2023/08/16 03:03:24;;;;;;;10.68;3.22;;;11.80;99.90;;;;;;5044288;28;20056;-66
2023/08/16 03:05:50;;;;;;;20.65;3.40;;;11.80;99.90;;;;;;5052594;28;20056;-66
2023/08/16 03:08:16;;;;;;;6.07;2.78;;;12.00;99.90;;;;;;5045159;28;20041;-66
2023/08/16 03:10:41;;;;;;;5.03;2.95;;;11.70;99.90;;;;;;5041319;28;20086;-66
2023/08/16 03:13:08;;;;;;;3.13;2.33;;;11.60;99.90;;;;;;5052412;28;20068;-66
2023/08/16 03:15:34;;;;;;;5.32;3.00;;;11.60;99.90;;;;;;5052502;28;20056;-66
2023/08/16 03:18:00;;;;;;;5.03;2.55;;;11.60;99.90;;;;;;5052003;28;20561;-66
2023/08/16 03:20:25;;;;;;;6.40;3.30;;;11.60;99.90;;;;;;5052088;28;20033;-66
2023/08/16 03:22:51;;;;;;;12.27;2.80;;;11.60;99.90;;;;;;5045838;28;20048;-66
2023/08/16 03:25:17;;;;;;;6.22;3.42;;;11.60;99.90;;;;;;5051972;28;20041;-66
2023/08/16 03:27:43;;;;;;;5.60;2.70;;;11.50;99.90;;;;;;5052075;28;20060;-66
2023/08/16 03:30:10;;;;;;;3.60;2.50;;;11.50;99.90;;;;;;5052271;28;20048;-66
2023/08/16 03:32:35;;;;;;;3.28;2.15;;;11.50;99.90;;;;;;5051459;28;20057;-66
2023/08/16 03:35:01;;;;;;;2.20;1.52;;;11.50;99.90;;;;;;5051689;28;20067;-66
2023/08/16 03:37:27;;;;;;;4.05;2.60;;;11.50;99.90;;;;;;5049304;28;20091;-66
2023/08/16 03:39:52;;;;;;;3.30;2.40;;;11.60;99.90;;;;;;5048678;28;20569;-66
2023/08/16 03:42:19;;;;;;;3.60;2.38;;;11.50;99.90;;;;;;5051811;28;20084;-67
2023/08/16 03:44:45;;;;;;;6.53;2.20;;;11.40;99.90;;;;;;5051365;28;20127;-66
2023/08/16 03:47:11;;;;;;;3.85;2.33;;;11.40;99.90;;;;;;5051526;28;20117;-66
2023/08/16 03:49:37;;;;;;;2.72;2.10;;;11.30;99.90;;;;;;5051878;28;20049;-66
2023/08/16 03:52:03;;;;;;;4.30;2.63;;;11.50;99.90;;;;;;5051525;28;20052;-66
2023/08/16 03:54:29;;;;;;;3.95;2.70;;;11.30;99.90;;;;;;5050229;28;20080;-66
2023/08/16 03:56:56;;;;;;;5.63;2.47;;;11.30;99.90;;;;;;5033261;28;20045;-66
2023/08/16 03:59:22;;;;;;;3.00;2.22;;;11.30;99.90;;;;;;5051712;28;20049;-66
2023/08/16 04:01:48;;;;;;;4.80;2.20;;;11.40;99.90;;;;;;5051393;28;20073;-66
2023/08/16 04:04:13;;;;;;;3.53;2.00;;;11.30;99.90;;;;;;5050405;28;20092;-66
2023/08/16 04:06:39;;;;;;;2.22;1.50;;;11.20;99.90;;;;;;5051331;28;20048;-66
2023/08/16 04:09:06;;;;;;;2.67;2.10;;;11.30;99.90;;;;;;5047996;28;20440;-66
2023/08/16 04:11:32;;;;;;;7.28;2.17;;;11.30;99.90;;;;;;5051554;28;20126;-66
2023/08/16 04:13:57;;;;;;;5.57;3.20;;;11.30;99.90;;;;;;5051493;28;20484;-66
2023/08/16 04:16:23;;;;;;;2.53;2.03;;;11.20;99.90;;;;;;5051513;28;20086;-66
2023/08/16 04:18:50;;;;;;;2.83;1.98;;;11.20;99.90;;;;;;5042729;28;20049;-66
2023/08/16 04:21:16;;;;;;;2.92;1.95;;;11.30;99.90;;;;;;5051383;28;20496;-67
2023/08/16 04:23:41;;;;;;;1.65;1.25;;;11.20;99.90;;;;;;5051182;28;20095;-66
2023/08/16 04:26:07;;;;;;;3.40;1.80;;;11.30;99.90;;;;;;5051128;28;20045;-66
2023/08/16 04:28:33;;;;;;;2.50;1.90;;;11.20;99.90;;;;;;5045548;28;20786;-67
2023/08/16 04:30:59;;;;;;;5.18;2.00;;;11.10;99.90;;;;;;5048637;28;20136;-66
2023/08/16 04:33:25;;;;;;;3.78;2.70;;;11.50;99.90;;;;;;5051161;28;20462;-66
2023/08/16 04:35:51;;;;;;;4.63;2.70;;;11.10;99.90;;;;;;5043063;28;20053;-66
2023/08/16 04:38:17;;;;;;;4.53;2.97;;;11.10;99.90;;;;;;5050243;28;20461;-65
2023/08/16 04:40:42;;;;;;;4.05;3.08;;;11.20;99.90;;;;;;5050522;28;20055;-66
2023/08/16 04:43:08;;;;;;;4.10;2.88;;;11.20;99.90;;;;;;5042532;28;20405;-66
2023/08/16 04:45:33;;;;;;;3.83;3.13;;;11.20;99.90;;;;;;5051108;28;20483;-66
2023/08/16 04:47:59;;;;;;;4.30;2.97;;;11.20;99.90;;;;;;5051187;28;20132;-66
2023/08/16 04:50:25;;;;;;;7.00;2.92;;;11.20;99.90;;;;;;5048929;28;20778;-67
2023/08/16 04:52:50;;;;;;;5.78;2.85;;;11.30;99.90;;;;;;5050747;28;20041;-66
2023/08/16 04:55:16;;;;;;;3.70;2.60;;;11.30;99.90;;;;;;5042064;28;20052;-66
2023/08/16 04:57:42;;;;;;;4.55;2.67;;;11.30;99.90;;;;;;5049223;28;20045;-66
2023/08/16 05:00:09;;;;;;;5.13;2.83;;;11.50;99.90;;;;;;5050327;28;20411;-66
2023/08/16 05:02:35;;;;;;;7.32;3.25;;;11.30;99.90;;;;;;5050491;28;20083;-66
2023/08/16 05:05:00;;;;;;;5.53;3.17;;;11.30;99.90;;;;;;5050393;28;20451;-74
2023/08/16 05:07:26;;;;;;;6.97;4.07;;;11.40;99.90;;;;;;5049760;28;20044;-71
2023/08/16 05:09:51;;;;;;;13.18;5.55;;;11.60;99.90;;;;;;5037531;28;20098;-69
2023/08/16 05:12:17;;;;;;;10.15;4.53;;;11.50;99.90;;;;;;5047510;28;20037;-75
2023/08/16 05:14:43;;;;;;;6.05;4.90;;;11.50;99.90;;;;;;5050366;28;20049;-76
2023/08/16 05:17:08;;;;;;;9.85;5.03;;;11.50;99.90;;;;;;5050431;28;20071;-76
2023/08/16 05:19:34;;;;;;;6.30;4.75;;;11.50;99.90;;;;;;5050271;28;20543;-71
2023/08/16 05:22:00;;;;;;;9.07;4.72;;;11.60;99.90;;;;;;5047185;28;20045;-75
2023/08/16 05:24:26;;;;;;;6.53;4.88;;;11.60;99.90;;;;;;5043769;28;20048;-75
2023/08/16 05:26:51;;;;;;;6.50;4.40;;;11.70;99.90;;;;;;5041042;28;20104;-66
2023/08/16 05:29:17;;;;;;;7.28;5.20;;;11.70;99.90;;;;;;5049926;28;20059;-66
2023/08/16 05:31:43;;;;;;;8.13;5.00;;;11.80;99.90;;;;;;5048659;28;20053;-66
2023/08/16 05:34:09;;;;;;;7.50;4.65;;;12.00;99.90;;;;;;5041165;28;20155;-66
2023/08/16 05:36:48;;;;;;;7.25;4.63;;;12.10;99.90;;;;;;5049907;28;20068;-66
2023/08/16 05:39:14;;;;;;;10.85;5.50;;;12.00;99.90;;;;;;5039923;28;20477;-66
2023/08/16 05:41:41;;;;;;;6.57;4.65;;;12.50;99.90;;;;;;5049149;28;20087;-66
2023/08/16 05:44:06;;;;;;;7.97;5.35;;;12.20;99.90;;;;;;5041250;28;20112;-66
2023/08/16 05:46:32;;;;;;;6.40;4.88;;;12.40;99.90;;;;;;5048295;28;20222;-66
2023/08/16 05:49:00;;;;;;;8.23;5.50;;;12.50;99.90;;;;;;5049756;28;20078;-66
2023/08/16 05:51:26;;;;;;;8.57;5.38;;;12.60;99.90;;;;;;5049471;28;20040;-66
2023/08/16 05:53:52;;;;;;;6.90;6.18;;;12.70;99.90;;;;;;5044165;28;20049;-66
2023/08/16 05:56:17;;;;;;;10.18;6.10;;;12.90;99.90;;;;;;5046028;28;20414;-66
2023/08/16 05:58:44;;;;;;;8.82;5.82;;;13.00;99.90;;;;;;5041214;28;20121;-66
2023/08/16 06:01:10;;;;;;;8.70;6.38;;;13.40;99.90;;;;;;5049257;28;20491;-65
2023/08/16 06:03:36;;;;;;;7.85;5.82;;;13.20;99.90;;;;;;5047953;28;20040;-74
2023/08/16 06:06:02;;;;;;;5.70;4.93;;;13.30;99.90;;;;;;5049275;28;20045;-70
2023/08/16 06:08:28;;;;;;;7.65;6.15;;;13.40;99.90;;;;;;5051999;28;20041;-73
2023/08/16 06:10:53;;;;;;;10.15;6.40;;;13.50;99.90;;;;;;5047417;28;20763;-71
2023/08/16 06:13:19;;;;;;;5.13;4.30;;;13.70;99.90;;;;;;5055764;28;20110;-70
2023/08/16 06:15:45;;;;;;;6.22;4.88;;;13.80;99.90;;;;;;5056407;28;20045;-71
2023/08/16 06:18:10;;;;;;;9.65;6.82;;;13.90;99.90;;;;;;5056195;28;20049;-71
2023/08/16 06:20:36;;;;;;;9.65;6.60;;;14.10;99.90;;;;;;5055964;28;20463;-76
2023/08/16 06:23:02;;;;;;;12.05;6.88;;;14.10;99.90;;;;;;5054484;28;20045;-72
2023/08/16 06:25:27;;;;;;;7.85;5.65;;;14.30;99.90;;;;;;5055796;28;20476;-75
2023/08/16 06:27:53;;;;;;;10.20;7.13;;;14.40;99.90;;;;;;5055502;28;20056;-71
2023/08/16 06:30:19;;;;;;;11.00;7.15;;;14.50;99.90;;;;;;5056155;28;20571;-73
2023/08/16 06:32:45;;;;;;;7.55;6.15;;;14.70;99.90;;;;;;5056082;28;20041;-67
2023/08/16 06:35:10;;;;;;;7.80;6.20;;;14.80;99.90;;;;;;5047245;28;20469;-70
2023/08/16 06:37:39;;;;;;;9.25;6.97;;;14.90;99.90;;;;;;5055077;28;20116;-76
2023/08/16 06:40:08;;;;;;;7.40;5.30;;;15.10;99.90;;;;;;5054951;28;20052;-71
2023/08/16 06:42:35;;;;;;;10.45;6.78;;;15.20;99.90;;;;;;5048125;28;20051;-70
2023/08/16 06:45:01;;;;;;;10.13;6.95;;;15.30;99.90;;;;;;5055345;28;20088;-74
2023/08/16 06:47:27;;;;;;;12.82;6.65;;;15.50;99.90;;;;;;5055916;28;20075;-67
2023/08/16 06:49:53;;;;;;;11.27;5.97;;;15.60;99.90;;;;;;5055865;28;20055;-76
2023/08/16 06:52:19;;;;;;;9.20;5.72;;;15.80;99.90;;;;;;5055936;28;20083;-76
2023/08/16 06:54:44;;;;;;;10.73;5.88;;;15.90;99.90;;;;;;5056130;28;20049;-72
2023/08/16 06:57:11;;;;;;;8.75;4.93;;;16.00;99.90;;;;;;5055638;28;20041;-72
2023/08/16 06:59:38;;;;;;;9.60;5.10;;;16.10;99.90;;;;;;5055338;28;20063;-74
2023/08/16 07:02:08;;;;;;;14.15;4.53;;;16.20;99.90;;;;;;5055241;28;20080;-67
2023/08/16 07:04:33;;;;;;;11.27;5.55;;;16.40;99.90;;;;;;5047021;28;20045;-73
2023/08/16 07:06:59;;;;;;;9.68;5.63;;;16.60;99.90;;;;;;5055630;28;20048;-67
2023/08/16 07:09:25;;;;;;;8.20;4.55;;;16.70;99.90;;;;;;5055725;28;20045;-66
2023/08/16 07:11:55;;;;;;;9.48;4.28;;;16.90;99.90;;;;;;5055362;28;20045;-67
2023/08/16 07:14:21;;;;;;;10.88;3.08;;;17.00;99.90;;;;;;5046361;28;20400;-68
2023/08/16 07:16:47;;;;;;;6.47;2.95;;;17.00;99.90;;;;;;5055625;28;20041;-67
2023/08/16 07:19:12;;;;;;;4.43;2.30;;;17.20;99.90;;;;;;5047297;28;20080;-66
2023/08/16 07:21:39;;;;;;;10.88;1.80;;;17.30;99.90;;;;;;5048214;28;20211;-65
2023/08/16 07:24:05;;;;;;;7.53;1.80;;;17.40;99.90;;;;;;5051984;28;20053;-65
2023/08/16 07:26:31;;;;;;;4.90;2.05;;;17.50;99.90;;;;;;5052036;28;20095;-67
2023/08/16 07:28:57;;;;;;;10.27;2.72;;;17.70;99.90;;;;;;5051955;28;20492;-66
2023/08/16 07:31:23;;;;;;;7.45;2.30;;;17.80;99.90;;;;;;5052020;28;20057;-66
2023/08/16 07:33:48;;;;;;;6.22;2.28;;;17.90;99.90;;;;;;5050622;28;20511;-69
2023/08/16 07:36:14;;;;;;;9.68;2.72;;;18.00;99.90;;;;;;5052246;28;20397;-65
2023/08/16 07:38:40;;;;;;;4.93;2.30;;;18.00;99.90;;;;;;5052246;28;20102;-66
2023/08/16 07:41:06;;;;;;;9.00;1.92;;;18.20;99.90;;;;;;5051927;28;20473;-66
2023/08/16 07:43:31;;;;;;;4.80;1.65;;;18.30;99.90;;;;;;5051842;28;20048;-67
2023/08/16 07:45:57;;;;;;;5.28;1.67;;;18.40;99.90;;;;;;5051794;28;20048;-65
2023/08/16 07:48:22;;;;;;;4.60;1.70;;;18.50;99.90;;;;;;5052059;28;20041;-68
2023/08/16 07:50:51;;;;;;;4.45;1.60;;;18.70;99.90;;;;;;5051848;28;20067;-67
2023/08/16 07:53:17;;;;;;;8.00;2.10;;;18.90;99.90;;;;;;5051894;28;20049;-66
2023/08/16 07:55:43;;;;;;;4.55;1.38;;;19.00;99.90;;;;;;5052035;28;20056;-67
2023/08/16 07:58:09;;;;;;;5.03;1.98;;;19.10;99.90;;;;;;5051886;28;20049;-67
2023/08/16 08:00:35;;;;;;;8.73;2.22;;;19.30;99.90;;;;;;5049451;28;20136;-67
2023/08/16 08:03:01;;;;;;;6.85;2.25;;;19.50;99.90;;;;;;5043206;28;20048;-67
2023/08/16 08:05:27;;;;;;;4.60;1.90;;;19.70;99.90;;;;;;5052223;28;20141;-67
2023/08/16 08:07:55;;;;;;;9.32;2.38;;;19.80;99.90;;;;;;5034153;28;20132;-68
2023/08/16 08:10:21;;;;;;;8.05;2.47;;;20.10;99.90;;;;;;5052181;28;20037;-67
2023/08/16 08:12:47;;;;;;;8.40;2.42;;;20.40;99.90;;;;;;5043518;28;20404;-67
2023/08/16 08:15:13;;;;;;;6.75;2.10;;;20.60;99.90;;;;;;5052263;28;20045;-68
2023/08/16 08:17:39;;;;;;;6.97;2.45;;;20.90;99.90;;;;;;5052012;28;20025;-67
2023/08/16 08:20:06;;;;;;;7.22;2.00;;;21.20;99.90;;;;;;5052237;28;20048;-67
2023/08/16 08:22:32;;;;;;;6.97;1.40;;;21.30;99.90;;;;;;5052000;28;20108;-67
2023/08/16 08:24:57;;;;;;;4.85;1.20;;;21.60;99.90;;;;;;5051745;28;20227;-67
2023/08/16 08:27:23;;;;;;;4.50;1.13;;;21.80;99.90;;;;;;5051620;28;20049;-66
2023/08/16 08:29:49;;;;;;;4.80;1.75;;;22.00;99.90;;;;;;5051750;28;20045;-67
2023/08/16 08:32:14;;;;;;;5.05;1.60;;;22.30;99.90;;;;;;5040613;28;20060;-69
2023/08/16 08:34:40;;;;;;;4.75;1.20;;;22.40;99.90;;;;;;5051131;28;20067;-75
2023/08/16 08:37:06;;;;;;;4.80;1.33;;;22.30;99.90;;;;;;5049722;28;20044;-72
2023/08/16 08:39:33;;;;;;;5.97;1.10;;;22.60;99.90;;;;;;5050369;28;20048;-67
2023/08/16 08:41:59;;;;;;;5.00;1.70;;;22.90;99.90;;;;;;5041037;28;20051;-70
2023/08/16 08:44:25;;;;;;;2.75;1.00;;;23.10;99.90;;;;;;5051000;28;20071;-69
2023/08/16 08:46:51;;;;;;;4.40;1.35;;;23.30;99.90;;;;;;5051257;28;20045;-72
2023/08/16 08:49:19;;;;;;;3.35;1.02;;;23.40;99.90;;;;;;5051325;28;20049;-75
2023/08/16 08:51:46;;;;;;;3.95;1.10;;;23.60;99.90;;;;;;5050047;28;20052;-71
2023/08/16 08:54:12;;;;;;;2.42;1.00;;;23.80;99.90;;;;;;5051303;28;20043;-70
2023/08/16 08:56:40;;;;;;;3.47;1.17;;;23.90;99.90;;;;;;5051159;28;20060;-77
2023/08/16 08:59:07;;;;;;;5.03;1.20;;;24.20;99.90;;;;;;5051415;28;20094;-70
2023/08/16 09:01:35;;;;;;;3.83;1.40;;;24.10;99.90;;;;;;5040658;28;20044;-85
2023/08/16 09:04:02;;;;;;;4.20;1.25;;;24.20;99.90;;;;;;5045043;28;20045;-79
2023/08/16 09:06:28;;;;;;;4.80;1.27;;;24.30;99.90;;;;;;5051156;28;20037;-87
2023/08/16 09:08:56;;;;;;;2.22;0.85;;;24.30;99.90;;;;;;5052112;28;20052;-87
2023/08/16 09:11:22;;;;;;;9.35;2.20;;;24.50;99.90;;;;;;5044233;28;20046;-73
2023/08/16 09:13:48;;;;;;;3.78;0.90;;;24.60;99.90;;;;;;5050501;28;20049;-82
2023/08/16 09:16:14;;;;;;;5.65;1.10;;;24.70;99.90;;;;;;5050002;28;20071;-91
2023/08/16 09:18:49;;;;;;;3.05;0.70;;;24.90;99.90;;;;;;5043192;28;20098;-74
2023/08/16 09:21:19;;;;;;;3.78;1.00;;;24.90;99.90;;;;;;5042376;28;20040;-72
2023/08/16 09:23:45;;;;;;;2.05;0.75;;;25.00;99.90;;;;;;5050969;28;20045;-69
2023/08/16 09:26:18;;;;;;;2.28;0.52;;;25.20;99.90;;;;;;5050933;28;20068;-71
2023/08/16 09:28:44;;;;;;;3.90;0.70;;;25.30;99.90;;;;;;5050641;28;20563;-70
2023/08/16 09:31:10;;;;;;;2.25;0.60;;;25.40;99.90;;;;;;5042092;28;20094;-69
2023/08/16 09:33:37;;;;;;;3.20;0.70;;;25.50;99.90;;;;;;5049899;28;20057;-69
2023/08/16 09:36:07;;;;;;;3.83;0.75;;;25.70;99.90;;;;;;5048940;28;20057;-70
2023/08/16 09:38:40;;;;;;;7.07;0.90;;;25.80;99.90;;;;;;5050561;28;20496;-69
2023/08/16 09:41:18;;;;;;;3.77;0.83;;;25.80;99.90;;;;;;5049919;28;20045;-68
2023/08/16 09:43:44;;;;;;;5.40;0.80;;;25.90;99.90;;;;;;5049508;28;20471;-69
2023/08/16 09:46:11;;;;;;;2.88;0.63;;;26.10;99.90;;;;;;5041999;28;20080;-71
2023/08/16 09:48:38;;;;;;;1.63;0.50;;;26.10;99.90;;;;;;5050132;28;20049;-71
2023/08/16 09:51:06;;;;;;;2.42;0.60;;;26.00;99.90;;;;;;5048418;28;20460;-69
2023/08/16 09:53:33;;;;;;;3.22;0.70;;;26.10;99.90;;;;;;5047400;28;20040;-76
2023/08/16 09:56:00;;;;;;;3.38;0.77;;;26.20;99.90;;;;;;5044785;28;20070;-68
2023/08/16 09:58:29;;;;;;;5.30;0.77;;;26.30;99.90;;;;;;5050409;28;20450;-70
2023/08/16 10:00:55;;;;;;;5.07;0.80;;;26.50;99.90;;;;;;5048248;28;20061;-69
2023/08/16 10:03:22;;;;;;;2.83;0.80;;;26.40;99.90;;;;;;5048696;28;20078;-70
2023/08/16 10:05:49;;;;;;;6.35;1.02;;;26.60;99.90;;;;;;5049629;28;20404;-72
2023/08/16 10:08:16;;;;;;;3.35;0.95;;;26.60;99.90;;;;;;5050134;28;20072;-67
2023/08/16 10:10:43;;;;;;;5.07;1.13;;;26.70;99.90;;;;;;5049852;28;20148;-70
2023/08/16 10:13:09;;;;;;;3.05;1.40;;;26.60;99.90;;;;;;5047632;28;20065;-71
2023/08/16 10:15:35;;;;;;;2.42;0.80;;;26.70;99.90;;;;;;5049996;28;20095;-68
2023/08/16 10:18:02;;;;;;;4.03;0.80;;;26.60;99.90;;;;;;5042020;28;20444;-69
2023/08/16 10:20:34;;;;;;;2.85;0.70;;;26.40;99.90;;;;;;5049924;28;20049;-71
2023/08/16 10:23:01;;;;;;;4.72;0.80;;;26.60;99.90;;;;;;5049916;28;20086;-70
2023/08/16 10:25:47;;;;;;;2.70;0.70;;;26.90;99.90;;;;;;5049848;28;20040;-70
2023/08/16 10:28:15;;;;;;;5.00;0.98;;;26.50;99.90;;;;;;5042018;28;20081;-70
2023/08/16 10:30:43;;;;;;;4.57;1.08;;;26.20;99.90;;;;;;5048477;28;20045;-70
2023/08/16 10:33:16;;;;;;;3.30;0.80;;;26.40;99.90;;;;;;5049716;28;20107;-72
2023/08/16 10:35:43;;;;;;;4.88;0.77;;;26.40;99.90;;;;;;5049101;28;20447;-68
2023/08/16 10:38:08;;;;;;;4.28;0.80;;;26.60;99.90;;;;;;5040960;28;20064;-70
2023/08/16 10:40:34;;;;;;;4.15;0.60;;;26.70;99.90;;;;;;5050055;28;20468;-69
2023/08/16 10:43:05;;;;;;;2.70;0.55;;;26.30;99.90;;;;;;5048477;28;20114;-70
2023/08/16 10:45:35;;;;;;;4.90;0.88;;;25.90;99.90;;;;;;5040508;28;20041;-70
2023/08/16 10:48:20;;;;;;;2.30;0.68;;;26.00;99.90;;;;;;5049606;28;20056;-70
2023/08/16 10:50:59;;;;;;;2.58;0.80;;;25.80;99.90;;;;;;5042966;28;20049;-70
2023/08/16 10:53:25;;;;;;;4.57;0.80;;;26.10;99.90;;;;;;5049524;28;20095;-70
2023/08/16 10:55:57;;;;;;;2.60;0.75;;;26.30;99.90;;;;;;5052447;28;20037;-69
2023/08/16 10:58:28;;;;;;;3.53;0.70;;;26.20;99.90;;;;;;5052324;28;20055;-69
2023/08/16 11:00:59;;;;;;;4.53;0.70;;;26.00;99.90;;;;;;5052232;28;20049;-69
2023/08/16 11:03:32;;;;;;;2.63;0.50;;;26.30;99.90;;;;;;5052686;28;20049;-70
2023/08/16 11:06:07;;;;;;;3.60;0.80;;;26.60;99.90;;;;;;5046135;28;20095;-70
2023/08/16 11:08:33;;;;;;;5.03;0.93;;;26.50;99.90;;;;;;5053092;28;20500;-70
2023/08/16 11:11:01;;;;;;;3.90;0.60;;;26.20;99.90;;;;;;5053405;28;20029;-70
2023/08/16 11:13:28;;;;;;;3.85;0.73;;;26.10;99.90;;;;;;5053220;28;20088;-75
2023/08/16 11:15:57;;;;;;;3.63;0.60;;;26.40;99.90;;;;;;5050024;28;20045;-78
2023/08/16 11:18:28;;;;;;;3.03;0.80;;;26.60;99.90;;;;;;5047525;28;20044;-68
2023/08/16 11:20:54;;;;;;;3.15;0.80;;;26.80;99.90;;;;;;5043738;28;20049;-72
2023/08/16 11:23:21;;;;;;;4.72;1.00;;;26.80;99.90;;;;;;5052535;28;20155;-69
2023/08/16 11:25:46;;;;;;;4.70;0.73;;;26.90;99.90;;;;;;5052271;28;20412;-70
2023/08/16 11:28:18;;;;;;;3.10;0.70;;;26.90;99.90;;;;;;5052465;28;20036;-71
2023/08/16 11:30:44;;;;;;;4.78;0.45;;;27.10;99.90;;;;;;5052254;28;20041;-71
2023/08/16 11:33:16;;;;;;;3.90;0.65;;;26.80;99.90;;;;;;5052258;28;20056;-69
2023/08/16 11:35:43;;;;;;;4.47;0.70;;;27.00;99.90;;;;;;5052031;28;20052;-76
2023/08/16 11:38:14;;;;;;;3.35;0.80;;;27.00;99.90;;;;;;5051852;28;20079;-72
2023/08/16 11:40:45;;;;;;;3.72;0.77;;;26.80;99.90;;;;;;5050694;28;20490;-73
2023/08/16 11:43:11;;;;;;;2.38;0.73;;;26.50;99.90;;;;;;5051812;28;20080;-70
2023/08/16 11:45:36;;;;;;;4.32;0.95;;;26.30;99.90;;;;;;5051890;28;20072;-73
2023/08/16 11:48:03;;;;;;;2.72;0.70;;;26.40;99.90;;;;;;5043937;28;20049;-78
2023/08/16 11:50:29;;;;;;;2.25;0.70;;;26.50;99.90;;;;;;5042806;28;20180;-78
2023/08/16 11:52:58;;;;;;;2.75;0.75;;;26.30;99.90;;;;;;5050773;28;20128;-70
2023/08/16 11:55:24;;;;;;;4.13;1.02;;;26.50;99.90;;;;;;5050327;28;20123;-74
2023/08/16 11:57:49;;;;;;;2.25;0.50;;;26.80;99.90;;;;;;5045108;28;20388;-70
2023/08/16 12:00:26;;;;;;;5.93;0.95;;;27.00;99.90;;;;;;5051603;28;20045;-69
2023/08/16 12:02:52;;;;;;;2.38;0.60;;;27.20;99.90;;;;;;5044445;28;20048;-70
2023/08/16 12:05:17;;;;;;;3.80;0.60;;;27.10;99.90;;;;;;5051083;28;20499;-70
2023/08/16 12:07:51;;;;;;;2.33;0.47;;;27.10;99.90;;;;;;5050855;28;20480;-80
2023/08/16 12:10:27;;;;;;;3.42;0.57;;;27.30;99.90;;;;;;5051684;28;20080;-73
2023/08/16 12:12:54;;;;;;;3.45;0.70;;;27.30;99.90;;;;;;5051515;28;20488;-80
2023/08/16 12:15:24;;;;;;;2.50;0.70;;;27.40;99.90;;;;;;5051762;28;20043;-71
2023/08/16 12:17:55;;;;;;;5.10;0.60;;;27.60;99.90;;;;;;5047987;28;20122;-79
2023/08/16 12:20:24;;;;;;;2.50;0.77;;;27.60;99.90;;;;;;5046157;28;20041;-76
2023/08/16 12:22:50;;;;;;;6.15;0.80;;;27.60;99.90;;;;;;5051143;28;20056;-84
2023/08/16 12:25:16;;;;;;;3.70;0.63;;;27.30;99.90;;;;;;5050945;28;20055;-79
2023/08/16 12:27:42;;;;;;;3.17;0.75;;;27.00;99.90;;;;;;5051222;28;20041;-79
2023/08/16 12:30:08;;;;;;;6.38;0.95;;;26.80;99.90;;;;;;5051158;28;20045;-78
2023/08/16 12:32:34;;;;;;;3.65;0.80;;;26.70;99.90;;;;;;5051463;28;20041;-80
2023/08/16 12:34:59;;;;;;;4.55;0.95;;;26.80;99.90;;;;;;5050950;28;20048;-78
2023/08/16 12:37:25;;;;;;;5.43;0.93;;;26.70;99.90;;;;;;5050772;28;20064;-70
2023/08/16 12:39:50;;;;;;;3.58;0.70;;;26.40;99.90;;;;;;5049017;28;20721;-74
2023/08/16 12:42:16;;;;;;;2.60;0.80;;;26.30;99.90;;;;;;5042635;28;20121;-82
2023/08/16 12:44:42;;;;;;;3.05;0.80;;;26.30;99.90;;;;;;5050767;28;20045;-78